createdAt,value
2022-08-18T00:00:45.638Z,92948.56
2022-08-18T00:02:28.861Z,92944.59
2022-08-18T00:04:03.089Z,92941.78
2022-08-18T00:05:36.104Z,92944.00
2022-08-18T00:07:14.995Z,92950.13
2022-08-18T00:08:46.606Z,92945.78
2022-08-18T00:10:18.822Z,92948.41
2022-08-18T00:11:50.656Z,92942.84
2022-08-18T00:13:22.261Z,92941.28
2022-08-18T00:14:53.888Z,92944.00
2022-08-18T00:16:25.534Z,92945.16
2022-08-18T00:17:58.337Z,92941.31
2022-08-18T00:19:46.515Z,92941.16
2022-08-18T00:21:22.451Z,92948.34
2022-08-18T00:22:56.711Z,92949.94
2022-08-18T00:24:30.982Z,92950.25
2022-08-18T00:26:04.661Z,92948.97
2022-08-18T00:27:37.375Z,92948.53
2022-08-18T00:29:09.220Z,92946.22
2022-08-18T00:30:40.872Z,92948.94
2022-08-18T00:32:17.379Z,92945.69
2022-08-18T00:33:48.927Z,92935.50
2022-08-18T00:35:22.004Z,92931.19
2022-08-18T00:36:53.926Z,92939.38
2022-08-18T00:38:25.729Z,92942.53
2022-08-18T00:39:57.664Z,92944.91
2022-08-18T00:41:29.390Z,92946.13
2022-08-18T00:43:02.289Z,92946.47
2022-08-18T00:44:33.961Z,92945.69
2022-08-18T00:46:16.325Z,92946.03
2022-08-18T00:47:48.654Z,92952.38
2022-08-18T00:49:20.183Z,92953.97
2022-08-18T00:51:00.253Z,92948.53
2022-08-18T00:52:31.901Z,92948.19
2022-08-18T00:54:07.142Z,92950.91
2022-08-18T00:55:39.918Z,92946.66
2022-08-18T00:57:21.612Z,92948.63
2022-08-18T00:58:54.487Z,92948.63
2022-08-18T01:00:26.309Z,92948.97
2022-08-18T01:02:02.761Z,92948.97
2022-08-18T01:03:40.030Z,92942.38
2022-08-18T01:05:21.274Z,92939.63
2022-08-18T01:06:54.456Z,92944.78
2022-08-18T01:08:28.620Z,92936.28
2022-08-18T01:10:01.264Z,92933.59
2022-08-18T01:11:33.173Z,92932.03
2022-08-18T01:13:04.989Z,92936.34
2022-08-18T01:14:37.578Z,92943.31
2022-08-18T01:16:27.693Z,92941.28
2022-08-18T01:18:18.862Z,92941.16
2022-08-18T01:20:11.843Z,92940.22
2022-08-18T01:21:52.381Z,92945.94
2022-08-18T01:23:24.274Z,92938.84
2022-08-18T01:25:22.374Z,92941.47
2022-08-18T01:26:57.867Z,92942.97
2022-08-18T01:28:30.077Z,92936.28
2022-08-18T01:30:10.370Z,92935.13
2022-08-18T01:31:53.334Z,92937.44
2022-08-18T01:33:32.531Z,92941.28
2022-08-18T01:35:04.577Z,92945.09
2022-08-18T01:36:37.856Z,92946.19
2022-08-18T01:38:09.476Z,92949.19
2022-08-18T01:41:22.151Z,92939.69
2022-08-18T01:41:33.089Z,92943.44
2022-08-18T01:43:05.457Z,92944.09
2022-08-18T01:44:37.113Z,92940.13
2022-08-18T01:46:09.199Z,92943.59
2022-08-18T01:47:48.073Z,92935.59
2022-08-18T01:49:20.121Z,92935.03
2022-08-18T01:50:53.697Z,92940.44
2022-08-18T01:52:25.434Z,92937.91
2022-08-18T01:53:58.729Z,92937.44
2022-08-18T01:55:30.307Z,92935.06
2022-08-18T01:57:02.364Z,92940.16
2022-08-18T01:58:34.249Z,92937.69
2022-08-18T02:00:06.204Z,92939.97
2022-08-18T02:01:38.678Z,92939.28
2022-08-18T02:03:20.352Z,92942.78
2022-08-18T02:04:53.348Z,92949.38
2022-08-18T02:06:32.268Z,92943.94
2022-08-18T02:08:06.093Z,92949.81
2022-08-18T02:09:38.529Z,92946.75
2022-08-18T02:11:10.585Z,92952.97
2022-08-18T02:12:42.292Z,92950.25
2022-08-18T02:14:13.890Z,92959.22
2022-08-18T02:15:45.787Z,92960.00
2022-08-18T02:17:17.409Z,92952.63
2022-08-18T02:18:49.489Z,92957.63
2022-08-18T02:20:21.366Z,92955.63
2022-08-18T02:21:53.004Z,92956.72
2022-08-18T02:23:24.966Z,92957.78
2022-08-18T02:24:57.733Z,92955.69
2022-08-18T02:26:29.736Z,92960.53
2022-08-18T02:28:01.245Z,92958.91
2022-08-18T02:29:33.283Z,92950.56
2022-08-18T02:31:11.408Z,92950.84
2022-08-18T02:32:43.412Z,92945.31
2022-08-18T02:34:15.995Z,92957.69
2022-08-18T02:35:51.868Z,92953.00
2022-08-18T02:37:23.394Z,92949.81
2022-08-18T02:38:59.537Z,92948.56
2022-08-18T02:40:35.102Z,92952.56
2022-08-18T02:42:07.327Z,92951.47
2022-08-18T02:43:39.350Z,92954.28
2022-08-18T02:45:11.130Z,92956.22
2022-08-18T02:46:46.129Z,92959.28
2022-08-18T02:48:38.367Z,92960.03
2022-08-18T02:50:13.165Z,92948.69
2022-08-18T02:51:44.744Z,92957.28
2022-08-18T02:53:22.866Z,92960.44
2022-08-18T02:54:55.425Z,92960.06
2022-08-18T02:56:40.742Z,92961.22
2022-08-18T02:58:14.210Z,92952.34
2022-08-18T02:59:47.309Z,92954.72
2022-08-18T03:01:27.285Z,92953.56
2022-08-18T03:03:00.479Z,92948.03
2022-08-18T03:04:32.196Z,92950.28
2022-08-18T03:06:04.159Z,92945.50
2022-08-18T03:07:35.865Z,92946.19
2022-08-18T03:09:12.098Z,92941.09
2022-08-18T03:10:43.691Z,92943.38
2022-08-18T03:12:15.855Z,92949.63
2022-08-18T03:13:47.698Z,92947.28
2022-08-18T03:15:19.859Z,92949.63
2022-08-18T03:16:54.849Z,92950.06
2022-08-18T03:18:26.911Z,92957.53
2022-08-18T03:19:58.719Z,92944.38
2022-08-18T03:21:35.872Z,92943.69
2022-08-18T03:23:10.119Z,92948.34
2022-08-18T03:24:41.982Z,92953.78
2022-08-18T03:26:17.114Z,92950.78
2022-08-18T03:27:51.534Z,92957.00
2022-08-18T03:29:27.940Z,92959.81
2022-08-18T03:31:02.867Z,92956.66
2022-08-18T03:32:34.672Z,92965.16
2022-08-18T03:34:07.363Z,92960.06
2022-08-18T03:35:39.293Z,92961.56
2022-08-18T03:37:13.354Z,92957.66
2022-08-18T03:38:45.321Z,92944.72
2022-08-18T03:40:22.431Z,92955.16
2022-08-18T03:42:00.998Z,92946.53
2022-08-18T03:43:50.306Z,92940.59
2022-08-18T03:45:24.541Z,92940.97
2022-08-18T03:46:56.154Z,92942.53
2022-08-18T03:48:27.812Z,92946.09
2022-08-18T03:49:59.876Z,92947.00
2022-08-18T03:51:34.799Z,92945.06
2022-08-18T03:53:06.540Z,92945.84
2022-08-18T03:54:39.583Z,92948.56
2022-08-18T03:56:18.681Z,92954.38
2022-08-18T03:57:53.280Z,92955.44
2022-08-18T03:59:25.702Z,92960.00
2022-08-18T04:00:57.656Z,92959.22
2022-08-18T04:02:29.485Z,92961.50
2022-08-18T04:04:02.527Z,92964.91
2022-08-18T04:05:35.416Z,92968.44
2022-08-18T04:07:07.867Z,92967.28
2022-08-18T04:08:39.577Z,92970.44
2022-08-18T04:10:16.219Z,92963.44
2022-08-18T04:11:51.210Z,92967.63
2022-08-18T04:13:24.469Z,92971.09
2022-08-18T04:14:56.326Z,92976.88
2022-08-18T04:16:28.643Z,92972.66
2022-08-18T04:18:04.627Z,92973.97
2022-08-18T04:19:36.435Z,92978.41
2022-08-18T04:21:10.104Z,92972.06
2022-08-18T04:22:41.846Z,92976.84
2022-08-18T04:24:13.998Z,92980.94
2022-08-18T04:25:45.871Z,92978.81
2022-08-18T04:27:18.021Z,92978.56
2022-08-18T04:28:50.136Z,92986.44
2022-08-18T04:30:21.914Z,92988.09
2022-08-18T04:31:54.136Z,92988.22
2022-08-18T04:33:26.442Z,92992.34
2022-08-18T04:35:02.597Z,92988.53
2022-08-18T04:36:35.392Z,92987.81
2022-08-18T04:38:08.272Z,92986.38
2022-08-18T04:39:40.222Z,92990.78
2022-08-18T04:41:12.715Z,92996.72
2022-08-18T04:42:45.131Z,92995.31
2022-08-18T04:44:18.419Z,92995.75
2022-08-18T04:45:51.326Z,92995.88
2022-08-18T04:47:23.014Z,93001.91
2022-08-18T04:48:59.387Z,92994.31
2022-08-18T04:50:31.262Z,93003.03
2022-08-18T04:52:38.558Z,93000.06
2022-08-18T04:54:12.715Z,92996.38
2022-08-18T04:55:48.627Z,93004.25
2022-08-18T04:57:20.632Z,93002.03
2022-08-18T04:59:05.288Z,92997.84
2022-08-18T05:00:37.026Z,92997.53
2022-08-18T05:02:14.600Z,93001.63
2022-08-18T05:03:50.376Z,92995.91
2022-08-18T05:05:22.733Z,92998.00
2022-08-18T05:06:54.719Z,93002.75
2022-08-18T05:08:27.040Z,93004.44
2022-08-18T05:09:58.777Z,93003.44
2022-08-18T05:11:33.573Z,93011.72
2022-08-18T05:13:05.359Z,93008.69
2022-08-18T05:14:36.964Z,93000.16
2022-08-18T05:16:18.029Z,93000.13
2022-08-18T05:17:51.296Z,93008.69
2022-08-18T05:19:23.702Z,93017.66
2022-08-18T05:20:58.569Z,93011.03
2022-08-18T05:22:31.921Z,93013.50
2022-08-18T05:24:04.331Z,93016.47
2022-08-18T05:25:37.586Z,93017.81
2022-08-18T05:27:09.817Z,93017.91
2022-08-18T05:28:42.581Z,93017.69
2022-08-18T05:30:15.506Z,93024.09
2022-08-18T05:31:48.223Z,93023.78
2022-08-18T05:33:20.180Z,93019.97
2022-08-18T05:34:52.491Z,93026.34
2022-08-18T05:36:30.309Z,93027.50
2022-08-18T05:38:03.005Z,93025.91
2022-08-18T05:39:47.651Z,93028.81
2022-08-18T05:41:25.398Z,93025.47
2022-08-18T05:42:57.548Z,93022.09
2022-08-18T05:44:36.481Z,93027.66
2022-08-18T05:46:10.193Z,93028.59
2022-08-18T05:47:42.288Z,93035.75
2022-08-18T05:49:13.880Z,93031.16
2022-08-18T05:50:45.731Z,93029.69
2022-08-18T05:52:36.441Z,93032.16
2022-08-18T05:54:26.646Z,93031.84
2022-08-18T05:56:20.857Z,93026.28
2022-08-18T05:57:55.486Z,93026.25
2022-08-18T05:59:28.911Z,93032.13
2022-08-18T06:01:04.647Z,93023.94
2022-08-18T06:02:42.196Z,93032.19
2022-08-18T06:04:32.447Z,93019.72
2022-08-18T06:06:17.935Z,93029.56
2022-08-18T06:07:52.039Z,93034.66
2022-08-18T06:09:35.429Z,93038.22
2022-08-18T06:11:07.690Z,93038.59
2022-08-18T06:12:55.071Z,93030.91
2022-08-18T06:14:27.036Z,93029.34
2022-08-18T06:16:05.349Z,93032.47
2022-08-18T06:17:43.932Z,93037.59
2022-08-18T06:19:57.710Z,93038.78
2022-08-18T06:21:29.988Z,93030.19
2022-08-18T06:23:02.187Z,93040.44
2022-08-18T06:24:38.742Z,93039.72
2022-08-18T06:26:28.919Z,93027.28
2022-08-18T06:28:08.825Z,93029.38
2022-08-18T06:29:48.180Z,93029.03
2022-08-18T06:31:33.655Z,93023.16
2022-08-18T06:33:35.102Z,93028.66
2022-08-18T06:35:08.679Z,93031.41
2022-08-18T06:36:46.139Z,93029.03
2022-08-18T06:38:36.539Z,93029.03
2022-08-18T06:40:08.822Z,93030.56
2022-08-18T06:41:46.063Z,93023.50
2022-08-18T06:43:18.426Z,93023.91
2022-08-18T06:44:51.087Z,93025.44
2022-08-18T06:46:24.357Z,93025.75
2022-08-18T06:48:01.624Z,93023.34
2022-08-18T06:49:40.510Z,93020.16
2022-08-18T06:51:12.355Z,93020.97
2022-08-18T06:52:56.811Z,93014.56
2022-08-18T06:54:30.243Z,93009.75
2022-08-18T06:56:10.696Z,93019.59
2022-08-18T06:57:59.808Z,93016.81
2022-08-18T06:59:32.358Z,93015.56
2022-08-18T07:01:07.649Z,93023.00
2022-08-18T07:02:42.087Z,93015.94
2022-08-18T07:04:32.613Z,93018.28
2022-08-18T07:06:08.337Z,93014.41
2022-08-18T07:07:40.966Z,93020.25
2022-08-18T07:09:39.557Z,93012.19
2022-08-18T07:11:27.073Z,93022.19
2022-08-18T07:13:18.905Z,93021.25
2022-08-18T07:14:52.235Z,93016.22
2022-08-18T07:16:54.641Z,93019.03
2022-08-18T07:18:31.219Z,93018.59
2022-08-18T07:20:10.748Z,93015.44
2022-08-18T07:21:44.615Z,93024.25
2022-08-18T07:23:29.223Z,93020.88
2022-08-18T07:25:05.152Z,93013.63
2022-08-18T07:26:59.095Z,93017.38
2022-08-18T07:28:38.585Z,93014.50
2022-08-18T07:30:15.746Z,93011.97
2022-08-18T07:31:49.573Z,93009.47
2022-08-18T07:33:22.791Z,93006.06
2022-08-18T07:34:55.540Z,93012.13
2022-08-18T07:36:29.605Z,93002.56
2022-08-18T07:38:18.706Z,93008.53
2022-08-18T07:40:13.832Z,93007.66
2022-08-18T07:41:49.985Z,93013.84
2022-08-18T07:43:24.476Z,93012.44
2022-08-18T07:45:00.143Z,93009.69
2022-08-18T07:46:38.125Z,93012.44
2022-08-18T07:48:37.044Z,93008.69
2022-08-18T07:50:23.389Z,93014.72
2022-08-18T07:52:36.448Z,93014.50
2022-08-18T07:54:44.962Z,93015.38
2022-08-18T07:56:19.178Z,93018.19
2022-08-18T07:57:50.953Z,93017.94
2022-08-18T07:59:36.936Z,93027.53
2022-08-18T08:01:14.489Z,93022.06
2022-08-18T08:02:54.729Z,93022.59
2022-08-18T08:04:42.225Z,93016.94
2022-08-18T08:06:21.165Z,93019.50
2022-08-18T08:07:56.418Z,93023.75
2022-08-18T08:09:37.325Z,93022.72
2022-08-18T08:11:13.515Z,93019.88
2022-08-18T08:13:08.408Z,93021.94
2022-08-18T08:14:42.978Z,93023.78
2022-08-18T08:16:15.409Z,93019.63
2022-08-18T08:17:49.863Z,93013.59
2022-08-18T08:20:02.030Z,93013.34
2022-08-18T08:21:36.198Z,93008.09
2022-08-18T08:23:20.949Z,93009.44
2022-08-18T08:25:22.430Z,93010.75
2022-08-18T08:27:00.700Z,93010.28
2022-08-18T08:28:55.665Z,93012.28
2022-08-18T08:30:28.711Z,93004.81
2022-08-18T08:32:02.635Z,93014.81
2022-08-18T08:33:39.062Z,93017.94
2022-08-18T08:35:16.237Z,93011.09
2022-08-18T08:37:11.059Z,93012.38
2022-08-18T08:38:47.046Z,93012.00
2022-08-18T08:40:21.150Z,93013.75
2022-08-18T08:42:07.345Z,93012.44
2022-08-18T08:43:56.194Z,93016.25
2022-08-18T08:45:35.460Z,93012.16
2022-08-18T08:47:13.329Z,93011.53
2022-08-18T08:49:08.287Z,93019.41
2022-08-18T08:50:50.578Z,93015.91
2022-08-18T08:52:27.313Z,93014.22
2022-08-18T08:54:07.639Z,93023.16
2022-08-18T08:55:43.063Z,93015.41
2022-08-18T08:57:15.523Z,93018.63
2022-08-18T08:58:52.011Z,93016.38
2022-08-18T09:00:25.131Z,93009.69
2022-08-18T09:02:09.727Z,93014.19
2022-08-18T09:03:49.390Z,93006.28
2022-08-18T09:05:31.506Z,92996.78
2022-08-18T09:07:19.255Z,92992.16
2022-08-18T09:08:55.910Z,92991.25
2022-08-18T09:10:34.215Z,92990.03
2022-08-18T09:22:22.305Z,92962.91
2022-08-18T09:23:56.439Z,92967.38
2022-08-18T09:25:42.205Z,92961.44
2022-08-18T09:27:16.407Z,92961.91
2022-08-18T09:28:58.433Z,92963.47
2022-08-18T09:30:51.642Z,92957.13
2022-08-18T09:32:24.233Z,92956.09
2022-08-18T09:34:09.689Z,92952.19
2022-08-18T09:35:57.862Z,92951.97
2022-08-18T09:37:48.747Z,92953.63
2022-08-18T09:40:00.061Z,92944.09
2022-08-18T09:43:53.007Z,92953.84
2022-08-18T09:45:33.324Z,92958.59
2022-08-18T09:47:06.137Z,92952.56
2022-08-18T09:48:43.165Z,92959.16
2022-08-18T09:50:26.640Z,92957.63
2022-08-18T09:51:59.961Z,92949.44
2022-08-18T09:53:37.325Z,92943.97
2022-08-18T09:55:18.837Z,92950.53
2022-08-18T09:56:53.807Z,92943.16
2022-08-18T09:58:29.311Z,92945.75
2022-08-18T10:00:04.532Z,92947.88
2022-08-18T10:01:38.470Z,92940.72
2022-08-18T10:03:13.035Z,92949.75
2022-08-18T10:04:51.575Z,92937.09
2022-08-18T10:06:26.940Z,92952.16
2022-08-18T10:08:06.342Z,92942.06
2022-08-18T10:09:47.993Z,92941.94
2022-08-18T10:11:25.180Z,92937.75
2022-08-18T10:13:01.060Z,92942.25
2022-08-18T10:14:51.594Z,92927.06
2022-08-18T10:16:31.923Z,92922.53
2022-08-18T10:18:07.411Z,92929.41
2022-08-18T10:19:44.771Z,92917.28
2022-08-18T10:21:31.357Z,92914.22
2022-08-18T10:23:07.626Z,92923.72
2022-08-18T10:24:55.381Z,92919.72
2022-08-18T10:26:34.768Z,92917.22
2022-08-18T10:28:07.733Z,92913.66
2022-08-18T10:29:51.155Z,92916.16
2022-08-18T10:31:27.207Z,92909.63
2022-08-18T10:33:00.247Z,92909.81
2022-08-18T10:34:51.658Z,92916.94
2022-08-18T10:36:34.167Z,92925.00
2022-08-18T10:38:12.425Z,92922.06
2022-08-18T10:39:50.128Z,92920.38
2022-08-18T10:41:31.027Z,92933.84
2022-08-18T10:45:13.231Z,92923.28
2022-08-18T10:46:53.901Z,92911.91
2022-08-18T10:48:30.868Z,92919.84
2022-08-18T10:50:35.728Z,92924.38
2022-08-18T10:52:08.573Z,92912.38
2022-08-18T10:53:44.337Z,92895.69
2022-08-18T10:55:22.790Z,92910.03
2022-08-18T10:56:55.017Z,92899.41
2022-08-18T10:58:37.286Z,92903.78
2022-08-18T11:00:14.063Z,92907.50
2022-08-18T11:02:02.787Z,92902.50
2022-08-18T11:03:52.245Z,92907.81
2022-08-18T11:05:27.901Z,92899.22
2022-08-18T11:07:08.904Z,92900.13
2022-08-18T11:08:44.475Z,92902.00
2022-08-18T11:12:14.135Z,92898.78
2022-08-18T11:13:54.044Z,92894.72
2022-08-18T11:15:36.203Z,92899.88
2022-08-18T11:17:29.262Z,92897.47
2022-08-18T11:19:19.980Z,92896.69
2022-08-18T11:20:52.781Z,92907.59
2022-08-18T11:24:21.512Z,92896.78
2022-08-18T11:25:53.520Z,92892.88
2022-08-18T11:27:27.951Z,92887.63
2022-08-18T11:29:00.108Z,92888.41
2022-08-18T11:30:35.846Z,92891.56
2022-08-18T11:32:19.829Z,92889.66
2022-08-18T11:33:53.027Z,92899.50
2022-08-18T11:35:30.473Z,92886.88
2022-08-18T11:37:04.522Z,92888.41
2022-08-18T11:38:42.200Z,92879.44
2022-08-18T11:41:08.665Z,92876.16
2022-08-18T11:42:24.935Z,92883.00
2022-08-18T11:43:57.874Z,92885.81
2022-08-18T11:45:35.283Z,92880.63
2022-08-18T11:47:16.114Z,92885.94
2022-08-18T11:48:53.059Z,92880.78
2022-08-18T11:50:32.164Z,92867.41
2022-08-18T11:54:13.296Z,92871.97
2022-08-18T11:55:48.272Z,92879.59
2022-08-18T11:57:31.777Z,92876.31
2022-08-18T11:59:07.744Z,92867.72
2022-08-18T12:00:43.990Z,92869.97
2022-08-18T12:11:40.431Z,92851.88
2022-08-18T12:13:21.181Z,92853.72
2022-08-18T12:15:04.961Z,92859.25
2022-08-18T12:16:46.631Z,92853.75
2022-08-18T12:18:28.810Z,92852.41
2022-08-18T12:20:14.355Z,92841.81
2022-08-18T12:21:47.527Z,92843.94
2022-08-18T12:23:21.263Z,92846.06
2022-08-18T12:24:53.363Z,92851.88
2022-08-18T12:28:17.427Z,92855.16
2022-08-18T12:29:50.662Z,92848.75
2022-08-18T12:31:28.897Z,92837.94
2022-08-18T12:33:14.561Z,92849.56
2022-08-18T12:34:47.208Z,92841.72
2022-08-18T12:36:19.146Z,92841.91
2022-08-18T12:37:59.574Z,92836.03
2022-08-18T12:39:32.959Z,92831.97
2022-08-18T12:41:06.336Z,92838.50
2022-08-18T12:42:38.822Z,92834.41
2022-08-18T12:44:13.650Z,92839.63
2022-08-18T12:45:46.966Z,92841.31
2022-08-18T12:47:22.786Z,92829.16
2022-08-18T12:48:54.805Z,92835.06
2022-08-18T12:50:31.169Z,92837.38
2022-08-18T12:52:05.870Z,92838.94
2022-08-18T12:53:38.522Z,92828.91
2022-08-18T12:55:30.397Z,92828.16
2022-08-18T12:58:57.794Z,92822.47
2022-08-18T13:00:29.671Z,92827.31
2022-08-18T13:02:02.159Z,92828.09
2022-08-18T13:03:35.216Z,92822.47
2022-08-18T13:05:09.491Z,92816.72
2022-08-18T13:06:48.541Z,92819.63
2022-08-18T13:08:38.017Z,92826.00
2022-08-18T13:10:35.460Z,92825.06
2022-08-18T13:12:14.974Z,92824.28
2022-08-18T13:13:52.688Z,92819.75
2022-08-18T13:15:27.531Z,92821.47
2022-08-18T13:16:59.521Z,92818.38
2022-08-18T13:18:31.451Z,92818.97
2022-08-18T13:20:28.027Z,92819.16
2022-08-18T13:22:02.372Z,92806.38
2022-08-18T13:23:38.217Z,92812.16
2022-08-18T13:25:12.950Z,92804.72
2022-08-18T13:27:04.168Z,92799.53
2022-08-18T13:28:57.140Z,92801.81
2022-08-18T13:30:32.821Z,92814.41
2022-08-18T13:32:09.455Z,92796.25
2022-08-18T13:33:56.662Z,92797.88
2022-08-18T13:35:38.370Z,92802.31
2022-08-18T13:37:22.108Z,92797.38
2022-08-18T13:38:57.169Z,92797.06
2022-08-18T13:40:32.800Z,92803.47
2022-08-18T13:42:25.112Z,92797.84
2022-08-18T13:45:58.744Z,92796.81
2022-08-18T13:47:38.009Z,92797.59
2022-08-18T13:49:14.189Z,92795.00
2022-08-18T13:53:04.123Z,92804.34
2022-08-18T13:58:20.695Z,92791.13
2022-08-18T14:01:51.978Z,92784.84
2022-08-18T14:03:42.639Z,92791.06
2022-08-18T14:11:25.870Z,92794.88
2022-08-18T14:13:20.343Z,92790.50
2022-08-18T14:17:07.668Z,92783.31
2022-08-18T14:22:48.625Z,92780.44
2022-08-18T14:24:39.101Z,92776.41
2022-08-18T14:26:30.463Z,92778.59
2022-08-18T14:28:04.092Z,92778.91
2022-08-18T14:29:46.428Z,92776.88
2022-08-18T14:31:20.770Z,92772.63
2022-08-18T14:32:55.553Z,92771.31
2022-08-18T14:34:30.616Z,92776.50
2022-08-18T14:36:06.086Z,92773.78
2022-08-18T14:37:40.694Z,92770.66
2022-08-18T14:39:12.364Z,92778.00
2022-08-18T14:40:44.732Z,92780.06
2022-08-18T14:42:16.823Z,92777.53
2022-08-18T14:44:11.293Z,92778.59
2022-08-18T14:45:46.183Z,92781.09
2022-08-18T14:47:24.322Z,92775.19
2022-08-18T14:48:56.543Z,92775.25
2022-08-18T14:50:29.014Z,92772.25
2022-08-18T14:52:02.442Z,92771.91
2022-08-18T14:53:35.056Z,92776.41
2022-08-18T14:55:08.511Z,92772.38
2022-08-18T14:56:40.394Z,92782.91
2022-08-18T14:58:14.069Z,92781.50
2022-08-18T14:59:47.199Z,92779.41
2022-08-18T15:01:19.430Z,92781.41
2022-08-18T15:02:55.079Z,92779.91
2022-08-18T15:04:31.319Z,92776.16
2022-08-18T15:06:04.673Z,92773.78
2022-08-18T15:07:40.276Z,92775.16
2022-08-18T15:09:13.100Z,92779.00
2022-08-18T15:10:45.614Z,92771.50
2022-08-18T15:12:20.833Z,92773.81
2022-08-18T15:13:55.065Z,92777.09
2022-08-18T15:15:27.905Z,92778.81
2022-08-18T15:17:19.793Z,92777.28
2022-08-18T15:18:51.555Z,92784.44
2022-08-18T15:20:29.473Z,92782.22
2022-08-18T15:22:20.284Z,92786.38
2022-08-18T15:24:14.995Z,92786.28
2022-08-18T15:25:52.225Z,92783.72
2022-08-18T15:27:42.817Z,92785.84
2022-08-18T15:29:15.185Z,92778.97
2022-08-18T15:30:51.203Z,92786.34
2022-08-18T15:32:24.365Z,92786.66
2022-08-18T15:33:57.527Z,92787.31
2022-08-18T15:35:29.311Z,92789.19
2022-08-18T15:37:09.740Z,92780.34
2022-08-18T15:38:41.725Z,92778.50
2022-08-18T15:40:30.466Z,92786.28
2022-08-18T15:42:10.002Z,92779.59
2022-08-18T15:43:46.175Z,92783.03
2022-08-18T15:45:18.927Z,92784.13
2022-08-18T15:46:58.298Z,92779.47
2022-08-18T15:48:30.755Z,92776.53
2022-08-18T15:50:06.713Z,92771.56
2022-08-18T15:51:41.141Z,92777.28
2022-08-18T15:53:14.155Z,92787.53
2022-08-18T15:54:50.621Z,92774.97
2022-08-18T15:56:25.907Z,92782.56
2022-08-18T15:57:58.253Z,92780.56
2022-08-18T15:59:39.758Z,92781.78
2022-08-18T16:01:29.908Z,92775.75
2022-08-18T16:03:04.099Z,92781.63
2022-08-18T16:04:44.986Z,92775.38
2022-08-18T16:06:20.637Z,92762.94
2022-08-18T16:07:52.938Z,92772.50
2022-08-18T16:09:25.400Z,92773.34
2022-08-18T16:10:57.289Z,92778.56
2022-08-18T16:12:29.427Z,92782.13
2022-08-18T16:14:01.125Z,92785.19
2022-08-18T16:15:37.495Z,92785.66
2022-08-18T16:17:17.721Z,92780.06
2022-08-18T16:18:55.498Z,92778.50
2022-08-18T16:20:29.465Z,92782.78
2022-08-18T16:22:01.376Z,92785.53
2022-08-18T16:23:33.758Z,92786.84
2022-08-18T16:25:09.456Z,92783.25
2022-08-18T16:26:41.653Z,92779.59
2022-08-18T16:28:13.534Z,92777.94
2022-08-18T16:29:45.314Z,92780.88
2022-08-18T16:31:17.118Z,92784.25
2022-08-18T16:32:48.938Z,92779.91
2022-08-18T16:34:20.871Z,92786.38
2022-08-18T16:35:52.679Z,92784.50
2022-08-18T16:37:24.523Z,92775.50
2022-08-18T16:38:58.410Z,92785.97
2022-08-18T16:40:30.758Z,92779.63
2022-08-18T16:42:04.368Z,92779.44
2022-08-18T16:43:36.818Z,92787.13
2022-08-18T16:45:09.043Z,92783.72
2022-08-18T16:46:40.938Z,92794.28
2022-08-18T16:48:16.671Z,92790.06
2022-08-18T16:49:52.043Z,92792.63
2022-08-18T16:51:29.987Z,92796.44
2022-08-18T16:53:02.133Z,92789.44
2022-08-18T16:54:33.799Z,92797.16
2022-08-18T16:56:11.053Z,92795.34
2022-08-18T16:58:02.038Z,92796.06
2022-08-18T16:59:52.128Z,92799.19
2022-08-18T17:01:48.998Z,92800.72
2022-08-18T17:03:39.706Z,92800.28
2022-08-18T17:05:12.455Z,92801.75
2022-08-18T17:06:47.465Z,92804.28
2022-08-18T17:08:19.750Z,92800.97
2022-08-18T17:09:52.848Z,92802.63
2022-08-18T17:11:27.418Z,92794.81
2022-08-18T17:12:59.137Z,92803.78
2022-08-18T17:14:34.855Z,92801.78
2022-08-18T17:16:07.546Z,92803.31
2022-08-18T17:17:39.674Z,92807.09
2022-08-18T17:19:11.468Z,92813.63
2022-08-18T17:20:43.357Z,92810.59
2022-08-18T17:22:15.666Z,92808.00
2022-08-18T17:23:47.846Z,92814.09
2022-08-18T17:25:23.515Z,92802.84
2022-08-18T17:27:18.679Z,92803.78
2022-08-18T17:29:18.407Z,92812.00
2022-08-18T17:30:52.414Z,92810.53
2022-08-18T17:32:28.292Z,92813.84
2022-08-18T17:34:02.685Z,92811.91
2022-08-18T17:35:40.071Z,92815.25
2022-08-18T17:37:12.498Z,92821.41
2022-08-18T17:38:45.236Z,92826.31
2022-08-18T17:40:18.126Z,92820.63
2022-08-18T17:42:08.425Z,92829.56
2022-08-18T17:45:21.691Z,92832.00
2022-08-18T17:46:58.593Z,92836.84
2022-08-18T17:48:48.987Z,92838.47
2022-08-18T17:50:44.244Z,92834.63
2022-08-18T17:52:15.846Z,92835.22
2022-08-18T17:53:50.851Z,92838.94
2022-08-18T17:55:26.660Z,92845.44
2022-08-18T17:57:01.508Z,92851.81
2022-08-18T17:58:40.737Z,92845.63
2022-08-18T18:00:13.974Z,92852.13
2022-08-18T18:01:45.570Z,92844.81
2022-08-18T18:03:17.147Z,92850.50
2022-08-18T18:04:48.896Z,92856.09
2022-08-18T18:06:39.841Z,92854.97
2022-08-18T18:08:11.611Z,92854.28
2022-08-18T18:09:44.815Z,92861.84
2022-08-18T18:11:16.544Z,92860.44
2022-08-18T18:12:48.314Z,92855.81
2022-08-18T18:14:25.717Z,92858.31
2022-08-18T18:15:58.661Z,92858.78
2022-08-18T18:17:31.206Z,92857.75
2022-08-18T18:19:06.495Z,92855.03
2022-08-18T18:20:40.647Z,92853.16
2022-08-18T18:22:25.628Z,92856.88
2022-08-18T18:24:06.377Z,92858.59
2022-08-18T18:25:38.412Z,92865.03
2022-08-18T18:27:26.797Z,92862.31
2022-08-18T18:29:17.518Z,92860.41
2022-08-18T18:30:49.116Z,92858.03
2022-08-18T18:32:24.455Z,92862.88
2022-08-18T18:34:03.079Z,92862.94
2022-08-18T18:35:53.071Z,92861.38
2022-08-18T18:37:27.706Z,92868.88
2022-08-18T18:39:05.726Z,92860.28
2022-08-18T18:40:38.954Z,92866.28
2022-08-18T18:42:18.208Z,92867.91
2022-08-18T18:43:51.585Z,92871.50
2022-08-18T18:45:31.250Z,92875.97
2022-08-18T18:47:23.415Z,92871.78
2022-08-18T18:48:55.250Z,92865.63
2022-08-18T18:50:27.229Z,92868.91
2022-08-18T18:52:17.389Z,92868.72
2022-08-18T18:53:52.306Z,92868.41
2022-08-18T18:55:25.343Z,92866.97
2022-08-18T18:56:57.382Z,92866.25
2022-08-18T18:58:36.974Z,92865.94
2022-08-18T19:00:20.474Z,92859.69
2022-08-18T19:01:52.525Z,92865.31
2022-08-18T19:03:27.376Z,92865.78
2022-08-18T19:05:03.913Z,92871.00
2022-08-18T19:06:45.499Z,92873.84
2022-08-18T19:08:28.752Z,92876.25
2022-08-18T19:10:18.439Z,92872.28
2022-08-18T19:11:57.859Z,92871.91
2022-08-18T19:13:35.176Z,92881.75
2022-08-18T19:15:10.816Z,92868.75
2022-08-18T19:16:57.315Z,92873.84
2022-08-18T19:18:32.253Z,92870.31
2022-08-18T19:20:35.839Z,92881.69
2022-08-18T19:22:29.762Z,92876.25
2022-08-18T19:24:13.667Z,92871.13
2022-08-18T19:25:51.450Z,92876.25
2022-08-18T19:27:28.723Z,92874.28
2022-08-18T19:29:13.252Z,92870.75
2022-08-18T19:30:47.055Z,92868.06
2022-08-18T19:32:20.432Z,92871.25
2022-08-18T19:33:54.107Z,92874.91
2022-08-18T19:35:37.833Z,92867.06
2022-08-18T19:37:31.597Z,92871.50
2022-08-18T19:39:07.991Z,92873.97
2022-08-18T19:40:39.752Z,92872.09
2022-08-18T19:42:11.855Z,92876.84
2022-08-18T19:43:47.759Z,92872.16
2022-08-18T19:45:26.397Z,92878.47
2022-08-18T19:46:59.380Z,92871.81
2022-08-18T19:48:53.873Z,92872.66
2022-08-18T19:50:33.988Z,92870.31
2022-08-18T19:52:46.657Z,92875.09
2022-08-18T19:54:23.285Z,92874.72
2022-08-18T19:55:57.996Z,92878.69
2022-08-18T19:57:36.587Z,92871.22
2022-08-18T19:59:18.237Z,92864.13
2022-08-18T20:01:10.736Z,92873.63
2022-08-18T20:03:04.002Z,92871.28
2022-08-18T20:04:59.298Z,92871.69